sensor_id;sensor_type;location;lat;lon;timestamp;temperature;humidity
64226;DHT22;50545;56.064;26.178;2023-04-20T00:00:08;6.80;82.50
64226;DHT22;50545;56.064;26.178;2023-04-20T00:02:39;6.70;83.60
64226;DHT22;50545;56.064;26.178;2023-04-20T00:05:08;6.70;83.80
64226;DHT22;50545;56.064;26.178;2023-04-20T00:07:36;6.60;84.50
64226;DHT22;50545;56.064;26.178;2023-04-20T00:10:07;6.60;84.70
64226;DHT22;50545;56.064;26.178;2023-04-20T00:12:35;6.60;84.00
64226;DHT22;50545;56.064;26.178;2023-04-20T00:15:02;6.60;83.20
64226;DHT22;50545;56.064;26.178;2023-04-20T00:17:29;6.60;83.00
64226;DHT22;50545;56.064;26.178;2023-04-20T00:19:57;6.60;82.90
64226;DHT22;50545;56.064;26.178;2023-04-20T00:22:24;6.50;82.70
64226;DHT22;50545;56.064;26.178;2023-04-20T00:24:52;6.50;82.90
64226;DHT22;50545;56.064;26.178;2023-04-20T00:27:19;6.50;82.60
64226;DHT22;50545;56.064;26.178;2023-04-20T00:29:47;6.40;83.00
64226;DHT22;50545;56.064;26.178;2023-04-20T00:32:14;6.40;83.40
64226;DHT22;50545;56.064;26.178;2023-04-20T00:34:41;6.40;83.40
64226;DHT22;50545;56.064;26.178;2023-04-20T00:37:08;6.40;83.70
64226;DHT22;50545;56.064;26.178;2023-04-20T00:39:35;6.40;83.70
64226;DHT22;50545;56.064;26.178;2023-04-20T00:42:07;6.50;83.80
64226;DHT22;50545;56.064;26.178;2023-04-20T00:44:34;6.40;83.50
64226;DHT22;50545;56.064;26.178;2023-04-20T00:47:01;6.50;83.50
64226;DHT22;50545;56.064;26.178;2023-04-20T00:49:29;6.50;83.50
64226;DHT22;50545;56.064;26.178;2023-04-20T00:51:58;6.50;83.20
64226;DHT22;50545;56.064;26.178;2023-04-20T00:54:27;6.60;83.60
64226;DHT22;50545;56.064;26.178;2023-04-20T00:56:56;6.60;82.80
64226;DHT22;50545;56.064;26.178;2023-04-20T00:59:24;6.70;83.80
64226;DHT22;50545;56.064;26.178;2023-04-20T01:01:51;6.60;83.80
64226;DHT22;50545;56.064;26.178;2023-04-20T01:04:20;6.60;83.80
64226;DHT22;50545;56.064;26.178;2023-04-20T01:06:48;6.50;83.40
64226;DHT22;50545;56.064;26.178;2023-04-20T01:09:15;6.50;84.00
64226;DHT22;50545;56.064;26.178;2023-04-20T01:11:43;6.40;84.60
64226;DHT22;50545;56.064;26.178;2023-04-20T01:14:10;6.30;84.70
64226;DHT22;50545;56.064;26.178;2023-04-20T01:16:37;6.20;86.00
64226;DHT22;50545;56.064;26.178;2023-04-20T01:19:04;6.10;86.80
64226;DHT22;50545;56.064;26.178;2023-04-20T01:21:32;6.00;87.40
64226;DHT22;50545;56.064;26.178;2023-04-20T01:23:59;5.90;87.90
64226;DHT22;50545;56.064;26.178;2023-04-20T01:26:27;5.80;88.20
64226;DHT22;50545;56.064;26.178;2023-04-20T01:28:54;5.70;89.90
64226;DHT22;50545;56.064;26.178;2023-04-20T01:31:22;5.70;90.10
64226;DHT22;50545;56.064;26.178;2023-04-20T01:33:49;5.60;90.40
64226;DHT22;50545;56.064;26.178;2023-04-20T01:36:17;5.60;90.40
64226;DHT22;50545;56.064;26.178;2023-04-20T01:38:44;5.60;90.90
64226;DHT22;50545;56.064;26.178;2023-04-20T01:41:11;5.60;90.90
64226;DHT22;50545;56.064;26.178;2023-04-20T01:43:39;5.60;91.20
64226;DHT22;50545;56.064;26.178;2023-04-20T01:46:06;5.50;91.50
64226;DHT22;50545;56.064;26.178;2023-04-20T01:48:33;5.50;91.00
64226;DHT22;50545;56.064;26.178;2023-04-20T01:51:01;5.50;91.30
64226;DHT22;50545;56.064;26.178;2023-04-20T01:53:28;5.60;90.90
64226;DHT22;50545;56.064;26.178;2023-04-20T01:55:55;5.60;90.80
64226;DHT22;50545;56.064;26.178;2023-04-20T01:58:22;5.60;91.00
64226;DHT22;50545;56.064;26.178;2023-04-20T02:00:50;5.50;90.90
64226;DHT22;50545;56.064;26.178;2023-04-20T02:03:17;5.50;90.70
64226;DHT22;50545;56.064;26.178;2023-04-20T02:05:45;5.60;90.60
64226;DHT22;50545;56.064;26.178;2023-04-20T02:08:12;5.60;90.80
64226;DHT22;50545;56.064;26.178;2023-04-20T02:10:39;5.60;90.60
64226;DHT22;50545;56.064;26.178;2023-04-20T02:13:06;5.60;90.60
64226;DHT22;50545;56.064;26.178;2023-04-20T02:15:34;5.60;90.50
64226;DHT22;50545;56.064;26.178;2023-04-20T02:18:01;5.60;90.30
64226;DHT22;50545;56.064;26.178;2023-04-20T02:20:29;5.60;90.40
64226;DHT22;50545;56.064;26.178;2023-04-20T02:22:57;5.70;89.80
64226;DHT22;50545;56.064;26.178;2023-04-20T02:25:24;5.70;89.90
64226;DHT22;50545;56.064;26.178;2023-04-20T02:27:51;5.70;89.80
64226;DHT22;50545;56.064;26.178;2023-04-20T02:30:19;5.70;90.10
64226;DHT22;50545;56.064;26.178;2023-04-20T02:32:46;5.60;89.40
64226;DHT22;50545;56.064;26.178;2023-04-20T02:35:13;5.60;89.00
64226;DHT22;50545;56.064;26.178;2023-04-20T02:37:42;5.70;89.40
64226;DHT22;50545;56.064;26.178;2023-04-20T02:40:10;5.60;89.50
64226;DHT22;50545;56.064;26.178;2023-04-20T02:42:37;5.60;89.20
64226;DHT22;50545;56.064;26.178;2023-04-20T02:45:05;5.60;89.40
64226;DHT22;50545;56.064;26.178;2023-04-20T02:47:32;5.60;89.70
64226;DHT22;50545;56.064;26.178;2023-04-20T02:49:59;5.60;89.80
64226;DHT22;50545;56.064;26.178;2023-04-20T02:52:27;5.50;89.10
64226;DHT22;50545;56.064;26.178;2023-04-20T02:54:54;5.40;88.90
64226;DHT22;50545;56.064;26.178;2023-04-20T02:57:21;5.30;89.30
64226;DHT22;50545;56.064;26.178;2023-04-20T02:59:48;5.20;90.20
64226;DHT22;50545;56.064;26.178;2023-04-20T03:02:16;5.10;90.90
64226;DHT22;50545;56.064;26.178;2023-04-20T03:04:43;4.90;91.70
64226;DHT22;50545;56.064;26.178;2023-04-20T03:07:10;4.80;92.80
64226;DHT22;50545;56.064;26.178;2023-04-20T03:09:40;4.70;93.60
64226;DHT22;50545;56.064;26.178;2023-04-20T03:12:07;4.60;93.90
64226;DHT22;50545;56.064;26.178;2023-04-20T03:14:34;4.50;94.10
64226;DHT22;50545;56.064;26.178;2023-04-20T03:17:02;4.40;94.60
64226;DHT22;50545;56.064;26.178;2023-04-20T03:19:29;4.40;94.90
64226;DHT22;50545;56.064;26.178;2023-04-20T03:21:56;4.30;95.20
64226;DHT22;50545;56.064;26.178;2023-04-20T03:24:24;4.30;95.50
64226;DHT22;50545;56.064;26.178;2023-04-20T03:26:51;4.30;95.90
64226;DHT22;50545;56.064;26.178;2023-04-20T03:29:18;4.30;95.80
64226;DHT22;50545;56.064;26.178;2023-04-20T03:31:45;4.40;95.70
64226;DHT22;50545;56.064;26.178;2023-04-20T03:34:13;4.40;95.80
64226;DHT22;50545;56.064;26.178;2023-04-20T03:36:40;4.40;95.60
64226;DHT22;50545;56.064;26.178;2023-04-20T03:39:07;4.40;95.30
64226;DHT22;50545;56.064;26.178;2023-04-20T03:41:35;4.50;95.20
64226;DHT22;50545;56.064;26.178;2023-04-20T03:44:02;4.50;95.20
64226;DHT22;50545;56.064;26.178;2023-04-20T03:46:30;4.50;94.60
64226;DHT22;50545;56.064;26.178;2023-04-20T03:48:57;4.60;94.10
64226;DHT22;50545;56.064;26.178;2023-04-20T03:51:24;4.70;93.80
64226;DHT22;50545;56.064;26.178;2023-04-20T03:53:52;4.80;93.80
64226;DHT22;50545;56.064;26.178;2023-04-20T03:56:19;4.90;93.40
64226;DHT22;50545;56.064;26.178;2023-04-20T03:58:47;5.00;93.10
64226;DHT22;50545;56.064;26.178;2023-04-20T04:01:14;5.00;92.30
64226;DHT22;50545;56.064;26.178;2023-04-20T04:03:41;5.10;92.00
64226;DHT22;50545;56.064;26.178;2023-04-20T04:06:10;5.10;91.90
64226;DHT22;50545;56.064;26.178;2023-04-20T04:08:37;5.20;91.80
64226;DHT22;50545;56.064;26.178;2023-04-20T04:11:04;5.20;91.90
64226;DHT22;50545;56.064;26.178;2023-04-20T04:13:31;5.20;91.70
64226;DHT22;50545;56.064;26.178;2023-04-20T04:16:00;5.20;91.60
64226;DHT22;50545;56.064;26.178;2023-04-20T04:18:27;5.30;91.60
64226;DHT22;50545;56.064;26.178;2023-04-20T04:20:58;5.30;91.10
64226;DHT22;50545;56.064;26.178;2023-04-20T04:23:25;5.40;90.80
64226;DHT22;50545;56.064;26.178;2023-04-20T04:25:52;5.50;90.20
64226;DHT22;50545;56.064;26.178;2023-04-20T04:28:20;5.50;90.40
64226;DHT22;50545;56.064;26.178;2023-04-20T04:30:47;5.60;90.30
64226;DHT22;50545;56.064;26.178;2023-04-20T04:33:14;5.70;89.90
64226;DHT22;50545;56.064;26.178;2023-04-20T04:35:45;5.70;90.00
64226;DHT22;50545;56.064;26.178;2023-04-20T04:38:12;5.80;89.80
64226;DHT22;50545;56.064;26.178;2023-04-20T04:40:40;5.90;88.50
64226;DHT22;50545;56.064;26.178;2023-04-20T04:43:08;5.90;87.90
64226;DHT22;50545;56.064;26.178;2023-04-20T04:45:38;5.90;87.50
64226;DHT22;50545;56.064;26.178;2023-04-20T04:48:07;6.00;86.30
64226;DHT22;50545;56.064;26.178;2023-04-20T04:50:38;6.10;87.50
64226;DHT22;50545;56.064;26.178;2023-04-20T04:53:06;6.10;87.20
64226;DHT22;50545;56.064;26.178;2023-04-20T04:55:33;6.20;86.40
64226;DHT22;50545;56.064;26.178;2023-04-20T04:58:00;6.30;85.40
64226;DHT22;50545;56.064;26.178;2023-04-20T05:00:28;6.40;86.60
64226;DHT22;50545;56.064;26.178;2023-04-20T05:02:57;6.40;85.10
64226;DHT22;50545;56.064;26.178;2023-04-20T05:05:24;6.50;84.90
64226;DHT22;50545;56.064;26.178;2023-04-20T05:07:52;6.50;85.80
64226;DHT22;50545;56.064;26.178;2023-04-20T05:10:19;6.60;83.60
64226;DHT22;50545;56.064;26.178;2023-04-20T05:12:47;6.70;85.40
64226;DHT22;50545;56.064;26.178;2023-04-20T05:15:14;6.70;84.70
64226;DHT22;50545;56.064;26.178;2023-04-20T05:17:41;6.80;86.80
64226;DHT22;50545;56.064;26.178;2023-04-20T05:20:09;6.90;85.30
64226;DHT22;50545;56.064;26.178;2023-04-20T05:22:37;6.90;86.40
64226;DHT22;50545;56.064;26.178;2023-04-20T05:25:05;7.10;80.40
64226;DHT22;50545;56.064;26.178;2023-04-20T05:27:33;7.20;81.40
64226;DHT22;50545;56.064;26.178;2023-04-20T05:30:00;7.30;79.80
64226;DHT22;50545;56.064;26.178;2023-04-20T05:32:46;7.30;79.80
64226;DHT22;50545;56.064;26.178;2023-04-20T05:35:17;7.40;80.80
64226;DHT22;50545;56.064;26.178;2023-04-20T05:37:44;7.50;80.00
64226;DHT22;50545;56.064;26.178;2023-04-20T05:40:14;7.60;78.50
64226;DHT22;50545;56.064;26.178;2023-04-20T05:42:41;7.70;80.00
64226;DHT22;50545;56.064;26.178;2023-04-20T05:45:09;7.80;79.30
64226;DHT22;50545;56.064;26.178;2023-04-20T05:47:37;7.80;79.30
64226;DHT22;50545;56.064;26.178;2023-04-20T05:50:04;7.90;79.20
64226;DHT22;50545;56.064;26.178;2023-04-20T05:52:32;8.00;77.20
64226;DHT22;50545;56.064;26.178;2023-04-20T05:54:59;8.10;73.90
64226;DHT22;50545;56.064;26.178;2023-04-20T05:57:26;8.20;75.30
64226;DHT22;50545;56.064;26.178;2023-04-20T05:59:54;8.30;74.80
64226;DHT22;50545;56.064;26.178;2023-04-20T06:02:22;8.30;74.70
64226;DHT22;50545;56.064;26.178;2023-04-20T06:04:49;8.40;73.10
64226;DHT22;50545;56.064;26.178;2023-04-20T06:07:17;8.50;72.80
64226;DHT22;50545;56.064;26.178;2023-04-20T06:09:44;8.60;71.70
64226;DHT22;50545;56.064;26.178;2023-04-20T06:12:11;8.70;74.80
64226;DHT22;50545;56.064;26.178;2023-04-20T06:14:39;8.80;71.70
64226;DHT22;50545;56.064;26.178;2023-04-20T06:17:06;8.90;71.80
64226;DHT22;50545;56.064;26.178;2023-04-20T06:19:33;9.00;70.30
64226;DHT22;50545;56.064;26.178;2023-04-20T06:22:07;9.10;69.50
64226;DHT22;50545;56.064;26.178;2023-04-20T06:24:35;9.20;71.90
64226;DHT22;50545;56.064;26.178;2023-04-20T06:27:04;9.20;68.20
64226;DHT22;50545;56.064;26.178;2023-04-20T06:29:31;9.30;67.20
64226;DHT22;50545;56.064;26.178;2023-04-20T06:31:59;9.40;67.50
64226;DHT22;50545;56.064;26.178;2023-04-20T06:34:26;9.50;68.40
64226;DHT22;50545;56.064;26.178;2023-04-20T06:36:53;9.60;66.90
64226;DHT22;50545;56.064;26.178;2023-04-20T06:39:20;9.70;66.70
64226;DHT22;50545;56.064;26.178;2023-04-20T06:41:48;9.80;68.00
64226;DHT22;50545;56.064;26.178;2023-04-20T06:44:15;9.90;65.00
64226;DHT22;50545;56.064;26.178;2023-04-20T06:46:42;10.00;65.80
64226;DHT22;50545;56.064;26.178;2023-04-20T06:49:10;10.10;63.60
64226;DHT22;50545;56.064;26.178;2023-04-20T06:51:38;10.20;64.20
64226;DHT22;50545;56.064;26.178;2023-04-20T06:54:05;10.30;62.60
64226;DHT22;50545;56.064;26.178;2023-04-20T06:56:32;10.40;61.60
64226;DHT22;50545;56.064;26.178;2023-04-20T06:59:01;10.60;62.50
64226;DHT22;50545;56.064;26.178;2023-04-20T07:01:28;10.60;61.60
64226;DHT22;50545;56.064;26.178;2023-04-20T07:03:56;10.70;62.70
64226;DHT22;50545;56.064;26.178;2023-04-20T07:06:24;10.80;60.30
64226;DHT22;50545;56.064;26.178;2023-04-20T07:08:53;10.90;60.10
64226;DHT22;50545;56.064;26.178;2023-04-20T07:11:20;11.00;59.00
64226;DHT22;50545;56.064;26.178;2023-04-20T07:13:49;11.00;59.80
64226;DHT22;50545;56.064;26.178;2023-04-20T07:16:18;11.10;60.20
64226;DHT22;50545;56.064;26.178;2023-04-20T07:18:45;11.20;61.00
64226;DHT22;50545;56.064;26.178;2023-04-20T07:21:12;11.30;60.80
64226;DHT22;50545;56.064;26.178;2023-04-20T07:23:41;11.40;59.90
64226;DHT22;50545;56.064;26.178;2023-04-20T07:26:10;11.50;61.80
64226;DHT22;50545;56.064;26.178;2023-04-20T07:28:38;11.70;58.80
64226;DHT22;50545;56.064;26.178;2023-04-20T07:31:05;11.80;59.20
64226;DHT22;50545;56.064;26.178;2023-04-20T07:33:32;12.00;57.50
64226;DHT22;50545;56.064;26.178;2023-04-20T07:36:01;12.10;57.50
64226;DHT22;50545;56.064;26.178;2023-04-20T07:38:29;12.20;54.70
64226;DHT22;50545;56.064;26.178;2023-04-20T07:40:56;12.30;57.60
64226;DHT22;50545;56.064;26.178;2023-04-20T07:43:23;12.40;56.70
64226;DHT22;50545;56.064;26.178;2023-04-20T07:45:50;12.60;55.30
64226;DHT22;50545;56.064;26.178;2023-04-20T07:48:18;12.70;54.40
64226;DHT22;50545;56.064;26.178;2023-04-20T07:50:45;12.80;56.70
64226;DHT22;50545;56.064;26.178;2023-04-20T07:53:13;12.90;56.10
64226;DHT22;50545;56.064;26.178;2023-04-20T07:55:40;13.00;54.40
64226;DHT22;50545;56.064;26.178;2023-04-20T07:58:07;13.10;53.40
64226;DHT22;50545;56.064;26.178;2023-04-20T08:00:34;13.20;54.80
64226;DHT22;50545;56.064;26.178;2023-04-20T08:03:02;13.30;55.50
64226;DHT22;50545;56.064;26.178;2023-04-20T08:05:29;13.40;53.80
64226;DHT22;50545;56.064;26.178;2023-04-20T08:07:57;13.60;53.30
64226;DHT22;50545;56.064;26.178;2023-04-20T08:10:25;13.70;52.30
64226;DHT22;50545;56.064;26.178;2023-04-20T08:12:52;13.80;52.90
64226;DHT22;50545;56.064;26.178;2023-04-20T08:15:19;13.90;51.40
64226;DHT22;50545;56.064;26.178;2023-04-20T08:17:47;14.00;51.50
64226;DHT22;50545;56.064;26.178;2023-04-20T08:20:14;14.10;49.50
64226;DHT22;50545;56.064;26.178;2023-04-20T08:22:41;14.10;50.00
64226;DHT22;50545;56.064;26.178;2023-04-20T08:25:09;14.20;50.10
64226;DHT22;50545;56.064;26.178;2023-04-20T08:27:37;14.30;53.50
64226;DHT22;50545;56.064;26.178;2023-04-20T08:30:05;14.50;46.90
64226;DHT22;50545;56.064;26.178;2023-04-20T08:32:32;14.60;51.00
64226;DHT22;50545;56.064;26.178;2023-04-20T08:34:59;14.80;49.00
64226;DHT22;50545;56.064;26.178;2023-04-20T08:37:26;14.80;49.70
64226;DHT22;50545;56.064;26.178;2023-04-20T08:39:56;14.90;48.00
64226;DHT22;50545;56.064;26.178;2023-04-20T08:42:23;14.90;48.20
64226;DHT22;50545;56.064;26.178;2023-04-20T08:44:51;15.00;46.90
64226;DHT22;50545;56.064;26.178;2023-04-20T08:47:20;15.00;48.70
64226;DHT22;50545;56.064;26.178;2023-04-20T08:49:52;15.10;45.00
64226;DHT22;50545;56.064;26.178;2023-04-20T08:52:20;15.10;45.20
64226;DHT22;50545;56.064;26.178;2023-04-20T08:54:48;15.10;46.30
64226;DHT22;50545;56.064;26.178;2023-04-20T08:57:24;15.20;47.00
64226;DHT22;50545;56.064;26.178;2023-04-20T08:59:52;15.30;45.30
64226;DHT22;50545;56.064;26.178;2023-04-20T09:02:19;15.40;47.30
64226;DHT22;50545;56.064;26.178;2023-04-20T09:04:48;15.40;42.50
64226;DHT22;50545;56.064;26.178;2023-04-20T09:07:27;15.50;47.40
64226;DHT22;50545;56.064;26.178;2023-04-20T09:09:58;15.70;43.30
64226;DHT22;50545;56.064;26.178;2023-04-20T09:12:26;15.80;42.60
64226;DHT22;50545;56.064;26.178;2023-04-20T09:14:54;15.80;42.00
64226;DHT22;50545;56.064;26.178;2023-04-20T09:17:36;15.80;42.60
64226;DHT22;50545;56.064;26.178;2023-04-20T09:20:06;16.00;41.60
64226;DHT22;50545;56.064;26.178;2023-04-20T09:22:36;15.90;42.80
64226;DHT22;50545;56.064;26.178;2023-04-20T09:25:16;15.90;41.80
64226;DHT22;50545;56.064;26.178;2023-04-20T09:27:59;15.70;40.20
64226;DHT22;50545;56.064;26.178;2023-04-20T09:30:46;15.80;40.50
64226;DHT22;50545;56.064;26.178;2023-04-20T09:33:15;16.00;41.20
64226;DHT22;50545;56.064;26.178;2023-04-20T09:35:43;16.10;40.00
64226;DHT22;50545;56.064;26.178;2023-04-20T09:38:14;16.10;39.60
64226;DHT22;50545;56.064;26.178;2023-04-20T09:40:42;16.20;42.50
64226;DHT22;50545;56.064;26.178;2023-04-20T09:43:16;16.20;42.50
64226;DHT22;50545;56.064;26.178;2023-04-20T09:45:44;16.10;40.20
64226;DHT22;50545;56.064;26.178;2023-04-20T09:48:12;15.90;42.30
64226;DHT22;50545;56.064;26.178;2023-04-20T09:50:46;15.90;39.70
64226;DHT22;50545;56.064;26.178;2023-04-20T09:53:17;16.00;40.40
64226;DHT22;50545;56.064;26.178;2023-04-20T09:55:46;16.20;40.10
64226;DHT22;50545;56.064;26.178;2023-04-20T09:58:17;16.20;39.20
64226;DHT22;50545;56.064;26.178;2023-04-20T10:00:46;16.10;40.20
64226;DHT22;50545;56.064;26.178;2023-04-20T10:03:19;16.00;40.00
64226;DHT22;50545;56.064;26.178;2023-04-20T10:05:48;16.00;41.20
64226;DHT22;50545;56.064;26.178;2023-04-20T10:08:18;16.20;41.40
64226;DHT22;50545;56.064;26.178;2023-04-20T10:10:48;16.40;40.70
64226;DHT22;50545;56.064;26.178;2023-04-20T10:13:16;16.50;38.70
64226;DHT22;50545;56.064;26.178;2023-04-20T10:15:45;16.50;40.20
64226;DHT22;50545;56.064;26.178;2023-04-20T10:20:46;16.80;41.30
64226;DHT22;50545;56.064;26.178;2023-04-20T10:23:14;17.00;41.80
64226;DHT22;50545;56.064;26.178;2023-04-20T10:25:42;17.00;37.60
64226;DHT22;50545;56.064;26.178;2023-04-20T10:28:11;17.00;39.60
64226;DHT22;50545;56.064;26.178;2023-04-20T10:30:50;17.00;38.40
64226;DHT22;50545;56.064;26.178;2023-04-20T10:33:18;16.90;42.10
64226;DHT22;50545;56.064;26.178;2023-04-20T10:35:52;17.10;37.50
64226;DHT22;50545;56.064;26.178;2023-04-20T10:38:34;17.00;39.40
64226;DHT22;50545;56.064;26.178;2023-04-20T10:41:05;17.00;38.70
64226;DHT22;50545;56.064;26.178;2023-04-20T10:43:33;17.20;37.30
64226;DHT22;50545;56.064;26.178;2023-04-20T10:46:18;17.40;36.60
64226;DHT22;50545;56.064;26.178;2023-04-20T10:48:56;17.70;37.40
64226;DHT22;50545;56.064;26.178;2023-04-20T10:51:24;17.80;36.70
64226;DHT22;50545;56.064;26.178;2023-04-20T10:56:25;17.80;36.00
64226;DHT22;50545;56.064;26.178;2023-04-20T10:58:53;17.70;38.40
64226;DHT22;50545;56.064;26.178;2023-04-20T11:01:20;17.70;38.50
64226;DHT22;50545;56.064;26.178;2023-04-20T11:03:49;17.70;39.60
64226;DHT22;50545;56.064;26.178;2023-04-20T11:06:21;17.60;36.00
64226;DHT22;50545;56.064;26.178;2023-04-20T11:08:49;17.80;39.70
64226;DHT22;50545;56.064;26.178;2023-04-20T11:11:21;18.00;40.40
64226;DHT22;50545;56.064;26.178;2023-04-20T11:13:50;18.20;37.60
64226;DHT22;50545;56.064;26.178;2023-04-20T11:16:18;18.20;38.10
64226;DHT22;50545;56.064;26.178;2023-04-20T11:18:53;18.10;35.50
64226;DHT22;50545;56.064;26.178;2023-04-20T11:21:21;18.00;36.20
64226;DHT22;50545;56.064;26.178;2023-04-20T11:23:49;17.80;36.20
64226;DHT22;50545;56.064;26.178;2023-04-20T11:26:16;17.80;33.50
64226;DHT22;50545;56.064;26.178;2023-04-20T11:28:56;17.80;36.50
64226;DHT22;50545;56.064;26.178;2023-04-20T11:31:24;17.80;35.30
64226;DHT22;50545;56.064;26.178;2023-04-20T11:33:53;18.00;36.20
64226;DHT22;50545;56.064;26.178;2023-04-20T11:36:22;18.20;35.00
64226;DHT22;50545;56.064;26.178;2023-04-20T11:38:49;18.40;33.40
64226;DHT22;50545;56.064;26.178;2023-04-20T11:41:17;18.60;33.60
64226;DHT22;50545;56.064;26.178;2023-04-20T11:43:45;18.60;34.10
64226;DHT22;50545;56.064;26.178;2023-04-20T11:46:17;18.20;35.10
64226;DHT22;50545;56.064;26.178;2023-04-20T11:48:47;17.90;34.30
64226;DHT22;50545;56.064;26.178;2023-04-20T11:51:15;18.00;37.40
64226;DHT22;50545;56.064;26.178;2023-04-20T11:53:42;18.10;35.30
64226;DHT22;50545;56.064;26.178;2023-04-20T11:56:09;18.00;35.40
64226;DHT22;50545;56.064;26.178;2023-04-20T11:58:37;17.80;34.20
64226;DHT22;50545;56.064;26.178;2023-04-20T12:01:04;17.80;36.10
64226;DHT22;50545;56.064;26.178;2023-04-20T12:03:31;18.00;38.00
64226;DHT22;50545;56.064;26.178;2023-04-20T12:05:59;18.20;34.90
64226;DHT22;50545;56.064;26.178;2023-04-20T12:08:26;18.40;36.60
64226;DHT22;50545;56.064;26.178;2023-04-20T12:10:54;18.60;37.60
64226;DHT22;50545;56.064;26.178;2023-04-20T12:13:24;18.80;34.70
64226;DHT22;50545;56.064;26.178;2023-04-20T12:15:51;19.00;32.10
64226;DHT22;50545;56.064;26.178;2023-04-20T12:18:18;19.30;34.10
64226;DHT22;50545;56.064;26.178;2023-04-20T12:20:46;19.30;32.10
64226;DHT22;50545;56.064;26.178;2023-04-20T12:23:15;19.10;33.20
64226;DHT22;50545;56.064;26.178;2023-04-20T12:25:43;19.10;34.40
64226;DHT22;50545;56.064;26.178;2023-04-20T12:28:10;18.90;32.30
64226;DHT22;50545;56.064;26.178;2023-04-20T12:30:37;18.90;35.20
64226;DHT22;50545;56.064;26.178;2023-04-20T12:33:04;18.90;36.90
64226;DHT22;50545;56.064;26.178;2023-04-20T12:35:32;19.20;34.30
64226;DHT22;50545;56.064;26.178;2023-04-20T12:37:59;19.50;33.30
64226;DHT22;50545;56.064;26.178;2023-04-20T12:40:26;19.60;31.50
64226;DHT22;50545;56.064;26.178;2023-04-20T12:42:53;19.40;34.80
64226;DHT22;50545;56.064;26.178;2023-04-20T12:45:21;19.00;33.20
64226;DHT22;50545;56.064;26.178;2023-04-20T12:47:48;18.80;33.10
64226;DHT22;50545;56.064;26.178;2023-04-20T12:50:16;19.00;36.00
64226;DHT22;50545;56.064;26.178;2023-04-20T12:52:43;19.10;34.20
64226;DHT22;50545;56.064;26.178;2023-04-20T12:55:10;19.20;35.40
64226;DHT22;50545;56.064;26.178;2023-04-20T12:57:38;19.40;34.70
64226;DHT22;50545;56.064;26.178;2023-04-20T13:00:06;19.50;31.90
64226;DHT22;50545;56.064;26.178;2023-04-20T13:02:34;19.70;33.40
64226;DHT22;50545;56.064;26.178;2023-04-20T13:05:02;19.80;33.00
64226;DHT22;50545;56.064;26.178;2023-04-20T13:07:30;20.00;31.70
64226;DHT22;50545;56.064;26.178;2023-04-20T13:09:59;19.90;34.00
64226;DHT22;50545;56.064;26.178;2023-04-20T13:12:26;19.80;33.40
64226;DHT22;50545;56.064;26.178;2023-04-20T13:14:54;19.70;32.60
64226;DHT22;50545;56.064;26.178;2023-04-20T13:17:21;19.90;33.20
64226;DHT22;50545;56.064;26.178;2023-04-20T13:19:49;20.30;33.20
64226;DHT22;50545;56.064;26.178;2023-04-20T13:22:16;20.80;32.10
64226;DHT22;50545;56.064;26.178;2023-04-20T13:24:45;21.20;30.70
64226;DHT22;50545;56.064;26.178;2023-04-20T13:27:12;21.10;29.80
64226;DHT22;50545;56.064;26.178;2023-04-20T13:29:40;20.80;31.00
64226;DHT22;50545;56.064;26.178;2023-04-20T13:32:08;20.40;30.20
64226;DHT22;50545;56.064;26.178;2023-04-20T13:34:35;20.10;33.50
64226;DHT22;50545;56.064;26.178;2023-04-20T13:37:03;19.70;32.10
64226;DHT22;50545;56.064;26.178;2023-04-20T13:39:30;19.70;33.70
64226;DHT22;50545;56.064;26.178;2023-04-20T13:41:57;19.90;31.70
64226;DHT22;50545;56.064;26.178;2023-04-20T13:44:25;20.40;31.70
64226;DHT22;50545;56.064;26.178;2023-04-20T13:46:52;21.10;32.20
64226;DHT22;50545;56.064;26.178;2023-04-20T13:49:19;21.10;30.90
64226;DHT22;50545;56.064;26.178;2023-04-20T13:51:48;21.00;31.80
64226;DHT22;50545;56.064;26.178;2023-04-20T13:54:16;20.30;30.80
64226;DHT22;50545;56.064;26.178;2023-04-20T13:56:44;20.00;31.50
64226;DHT22;50545;56.064;26.178;2023-04-20T13:59:11;20.30;34.20
64226;DHT22;50545;56.064;26.178;2023-04-20T14:01:38;20.10;31.60
64226;DHT22;50545;56.064;26.178;2023-04-20T14:04:08;19.80;33.90
64226;DHT22;50545;56.064;26.178;2023-04-20T14:06:35;19.80;31.10
64226;DHT22;50545;56.064;26.178;2023-04-20T14:09:02;19.70;32.20
64226;DHT22;50545;56.064;26.178;2023-04-20T14:11:30;19.60;32.50
64226;DHT22;50545;56.064;26.178;2023-04-20T14:13:57;19.70;33.40
64226;DHT22;50545;56.064;26.178;2023-04-20T14:16:24;19.60;31.90
64226;DHT22;50545;56.064;26.178;2023-04-20T14:18:52;19.50;34.10
64226;DHT22;50545;56.064;26.178;2023-04-20T14:21:19;19.90;32.20
64226;DHT22;50545;56.064;26.178;2023-04-20T14:23:46;20.20;33.10
64226;DHT22;50545;56.064;26.178;2023-04-20T14:26:19;20.60;33.10
64226;DHT22;50545;56.064;26.178;2023-04-20T14:28:46;20.90;31.70
64226;DHT22;50545;56.064;26.178;2023-04-20T14:31:15;20.60;30.30
64226;DHT22;50545;56.064;26.178;2023-04-20T14:33:42;20.20;31.90
64226;DHT22;50545;56.064;26.178;2023-04-20T14:36:10;20.20;31.50
64226;DHT22;50545;56.064;26.178;2023-04-20T14:38:38;19.90;32.00
64226;DHT22;50545;56.064;26.178;2023-04-20T14:41:05;19.70;33.20
64226;DHT22;50545;56.064;26.178;2023-04-20T14:43:32;19.70;33.60
64226;DHT22;50545;56.064;26.178;2023-04-20T14:46:00;19.80;31.60
64226;DHT22;50545;56.064;26.178;2023-04-20T14:48:28;19.70;31.90
64226;DHT22;50545;56.064;26.178;2023-04-20T14:50:55;19.80;32.00
64226;DHT22;50545;56.064;26.178;2023-04-20T14:53:23;20.00;31.40
64226;DHT22;50545;56.064;26.178;2023-04-20T14:55:50;20.30;30.50
64226;DHT22;50545;56.064;26.178;2023-04-20T14:58:18;20.40;31.40
64226;DHT22;50545;56.064;26.178;2023-04-20T15:00:46;20.60;30.90
64226;DHT22;50545;56.064;26.178;2023-04-20T15:03:17;20.60;32.90
64226;DHT22;50545;56.064;26.178;2023-04-20T15:05:45;20.20;32.10
64226;DHT22;50545;56.064;26.178;2023-04-20T15:08:13;20.00;31.10
64226;DHT22;50545;56.064;26.178;2023-04-20T15:10:40;19.90;33.40
64226;DHT22;50545;56.064;26.178;2023-04-20T15:13:08;20.30;34.30
64226;DHT22;50545;56.064;26.178;2023-04-20T15:15:35;20.70;32.90
64226;DHT22;50545;56.064;26.178;2023-04-20T15:18:15;21.00;31.10
64226;DHT22;50545;56.064;26.178;2023-04-20T15:20:43;21.50;30.10
64226;DHT22;50545;56.064;26.178;2023-04-20T15:23:11;21.80;30.60
64226;DHT22;50545;56.064;26.178;2023-04-20T15:25:38;21.80;30.40
64226;DHT22;50545;56.064;26.178;2023-04-20T15:28:05;21.70;29.40
64226;DHT22;50545;56.064;26.178;2023-04-20T15:30:33;21.60;30.00
64226;DHT22;50545;56.064;26.178;2023-04-20T15:33:00;21.50;27.90